sensor_id;sensor_type;location;lat;lon;timestamp;pressure;altitude;pressure_sealevel;temperature;humidity
33163;BME280;29282;45.656;11.302;2023-02-04T00:00:58;98572.41;;;18.24;44.25
33163;BME280;29282;45.656;11.302;2023-02-04T00:03:24;98570.50;;;18.25;44.41
33163;BME280;29282;45.656;11.302;2023-02-04T00:05:50;98570.50;;;18.25;44.33
33163;BME280;29282;45.656;11.302;2023-02-04T00:08:15;98578.38;;;18.26;44.15
33163;BME280;29282;45.656;11.302;2023-02-04T00:10:41;98565.00;;;18.25;44.25
33163;BME280;29282;45.656;11.302;2023-02-04T00:13:06;98579.03;;;18.23;44.28
33163;BME280;29282;45.656;11.302;2023-02-04T00:15:31;98590.81;;;18.24;44.18
33163;BME280;29282;45.656;11.302;2023-02-04T00:17:57;98588.41;;;18.22;44.14
33163;BME280;29282;45.656;11.302;2023-02-04T00:20:23;98595.03;;;18.21;44.01
33163;BME280;29282;45.656;11.302;2023-02-04T00:22:48;98586.81;;;18.21;44.17
33163;BME280;29282;45.656;11.302;2023-02-04T00:25:15;98588.41;;;18.22;44.10
33163;BME280;29282;45.656;11.302;2023-02-04T00:27:41;98596.94;;;18.21;44.12
33163;BME280;29282;45.656;11.302;2023-02-04T00:30:08;98581.31;;;18.21;44.21
33163;BME280;29282;45.656;11.302;2023-02-04T00:32:33;98592.28;;;18.21;44.05
33163;BME280;29282;45.656;11.302;2023-02-04T00:34:59;98585.97;;;18.21;44.04
33163;BME280;29282;45.656;11.302;2023-02-04T00:37:26;98570.16;;;18.18;43.91
33163;BME280;29282;45.656;11.302;2023-02-04T00:39:51;98580.81;;;18.19;44.05
33163;BME280;29282;45.656;11.302;2023-02-04T00:42:16;98582.44;;;18.20;43.85
33163;BME280;29282;45.656;11.302;2023-02-04T00:44:42;98587.13;;;18.20;43.98
33163;BME280;29282;45.656;11.302;2023-02-04T00:47:08;98589.06;;;18.19;44.21
33163;BME280;29282;45.656;11.302;2023-02-04T00:49:33;98594.53;;;18.19;43.96
33163;BME280;29282;45.656;11.302;2023-02-04T00:51:59;98591.78;;;18.19;44.03
33163;BME280;29282;45.656;11.302;2023-02-04T00:54:25;98596.13;;;18.20;43.98
33163;BME280;29282;45.656;11.302;2023-02-04T00:56:50;98597.59;;;18.18;44.05
33163;BME280;29282;45.656;11.302;2023-02-04T00:59:18;98601.16;;;18.18;43.90
33163;BME280;29282;45.656;11.302;2023-02-04T01:01:44;98589.06;;;18.19;43.96
33163;BME280;29282;45.656;11.302;2023-02-04T01:04:10;98587.44;;;18.18;43.90
33163;BME280;29282;45.656;11.302;2023-02-04T01:06:35;98587.75;;;18.17;43.94
33163;BME280;29282;45.656;11.302;2023-02-04T01:09:01;98586.31;;;18.19;43.86
33163;BME280;29282;45.656;11.302;2023-02-04T01:11:28;98590.66;;;18.20;43.85
33163;BME280;29282;45.656;11.302;2023-02-04T01:13:54;98592.94;;;18.18;43.80
33163;BME280;29282;45.656;11.302;2023-02-04T01:16:19;98604.84;;;18.22;43.72
33163;BME280;29282;45.656;11.302;2023-02-04T01:18:48;98610.66;;;18.21;43.69
33163;BME280;29282;45.656;11.302;2023-02-04T01:21:13;98607.91;;;18.21;43.58
33163;BME280;29282;45.656;11.302;2023-02-04T01:23:39;98610.66;;;18.21;43.62
33163;BME280;29282;45.656;11.302;2023-02-04T01:26:05;98612.28;;;18.22;43.65
33163;BME280;29282;45.656;11.302;2023-02-04T01:28:30;98606.00;;;18.21;43.56
33163;BME280;29282;45.656;11.302;2023-02-04T01:30:56;98613.41;;;18.21;43.70
33163;BME280;29282;45.656;11.302;2023-02-04T01:33:21;98612.28;;;18.22;43.51
33163;BME280;29282;45.656;11.302;2023-02-04T01:35:47;98618.09;;;18.20;43.45
33163;BME280;29282;45.656;11.302;2023-02-04T01:38:12;98613.41;;;18.21;43.55
33163;BME280;29282;45.656;11.302;2023-02-04T01:40:38;98605.50;;;18.19;43.50
33163;BME280;29282;45.656;11.302;2023-02-04T01:43:05;98594.53;;;18.19;43.59
33163;BME280;29282;45.656;11.302;2023-02-04T01:45:31;98576.47;;;18.18;43.49
33163;BME280;29282;45.656;11.302;2023-02-04T01:47:59;98560.03;;;18.18;43.47
33163;BME280;29282;45.656;11.302;2023-02-04T01:50:24;98561.94;;;18.18;43.65
33163;BME280;29282;45.656;11.302;2023-02-04T01:52:50;98555.66;;;18.17;43.47
33163;BME280;29282;45.656;11.302;2023-02-04T01:55:19;98549.06;;;18.18;43.39
33163;BME280;29282;45.656;11.302;2023-02-04T01:57:45;98546.31;;;18.18;43.51
33163;BME280;29282;45.656;11.302;2023-02-04T02:00:16;98554.84;;;18.17;43.58
33163;BME280;29282;45.656;11.302;2023-02-04T02:02:47;98538.88;;;18.19;43.31
33163;BME280;29282;45.656;11.302;2023-02-04T02:05:20;98541.13;;;18.17;43.34
33163;BME280;29282;45.656;11.302;2023-02-04T02:07:50;98547.91;;;18.19;43.41
33163;BME280;29282;45.656;11.302;2023-02-04T02:10:17;98551.81;;;18.18;43.26
33163;BME280;29282;45.656;11.302;2023-02-04T02:12:44;98530.97;;;18.17;43.34
33163;BME280;29282;45.656;11.302;2023-02-04T02:15:11;98522.75;;;18.17;43.18
33163;BME280;29282;45.656;11.302;2023-02-04T02:17:37;98541.13;;;18.17;43.31
33163;BME280;29282;45.656;11.302;2023-02-04T02:20:06;98535.66;;;18.17;43.36
33163;BME280;29282;45.656;11.302;2023-02-04T02:25:13;98553.72;;;18.18;43.27
33163;BME280;29282;45.656;11.302;2023-02-04T02:27:39;98549.84;;;18.19;43.29
33163;BME280;29282;45.656;11.302;2023-02-04T02:30:07;98543.56;;;18.18;43.20
33163;BME280;29282;45.656;11.302;2023-02-04T02:32:35;98546.63;;;18.17;43.28
33163;BME280;29282;45.656;11.302;2023-02-04T02:35:01;98545.03;;;18.16;43.13
33163;BME280;29282;45.656;11.302;2023-02-04T02:37:26;98538.75;;;18.15;43.17
33163;BME280;29282;45.656;11.302;2023-02-04T02:39:52;98537.94;;;18.15;43.34
33163;BME280;29282;45.656;11.302;2023-02-04T02:42:19;98546.97;;;18.15;43.19
33163;BME280;29282;45.656;11.302;2023-02-04T02:44:45;98546.63;;;18.17;43.09
33163;BME280;29282;45.656;11.302;2023-02-04T02:47:18;98542.28;;;18.16;43.11
33163;BME280;29282;45.656;11.302;2023-02-04T02:49:47;98538.75;;;18.15;43.17
33163;BME280;29282;45.656;11.302;2023-02-04T02:52:13;98530.50;;;18.15;43.24
33163;BME280;29282;45.656;11.302;2023-02-04T02:54:42;98537.59;;;18.16;43.17
33163;BME280;29282;45.656;11.302;2023-02-04T02:57:13;98528.88;;;18.14;42.85
33163;BME280;29282;45.656;11.302;2023-02-04T02:59:40;98520.66;;;18.14;43.23
33163;BME280;29282;45.656;11.302;2023-02-04T03:02:07;98525.69;;;18.12;43.33
33163;BME280;29282;45.656;11.302;2023-02-04T03:04:38;98530.81;;;18.14;43.13
33163;BME280;29282;45.656;11.302;2023-02-04T03:07:05;98529.22;;;18.13;43.25
33163;BME280;29282;45.656;11.302;2023-02-04T03:09:31;98539.06;;;18.14;43.34
33163;BME280;29282;45.656;11.302;2023-02-04T03:11:57;98524.53;;;18.13;43.11
33163;BME280;29282;45.656;11.302;2023-02-04T03:14:24;98535.50;;;18.13;43.04
33163;BME280;29282;45.656;11.302;2023-02-04T03:16:51;98527.28;;;18.13;42.94
33163;BME280;29282;45.656;11.302;2023-02-04T03:19:17;98519.41;;;18.12;43.09
33163;BME280;29282;45.656;11.302;2023-02-04T03:21:44;98517.13;;;18.14;42.89
33163;BME280;29282;45.656;11.302;2023-02-04T03:24:10;98506.47;;;18.12;43.08
33163;BME280;29282;45.656;11.302;2023-02-04T03:26:38;98508.09;;;18.13;42.89
33163;BME280;29282;45.656;11.302;2023-02-04T03:29:09;98512.44;;;18.14;43.06
33163;BME280;29282;45.656;11.302;2023-02-04T03:31:35;98499.06;;;18.13;42.88
33163;BME280;29282;45.656;11.302;2023-02-04T03:34:02;98498.72;;;18.14;43.08
33163;BME280;29282;45.656;11.302;2023-02-04T03:36:28;98494.88;;;18.15;42.83
33163;BME280;29282;45.656;11.302;2023-02-04T03:38:54;98499.88;;;18.13;42.83
33163;BME280;29282;45.656;11.302;2023-02-04T03:41:20;98516.00;;;18.15;42.91
33163;BME280;29282;45.656;11.302;2023-02-04T03:43:46;98516.81;;;18.15;42.78
33163;BME280;29282;45.656;11.302;2023-02-04T03:46:11;98522.28;;;18.15;42.77
33163;BME280;29282;45.656;11.302;2023-02-04T03:48:37;98526.13;;;18.14;42.86
33163;BME280;29282;45.656;11.302;2023-02-04T03:51:02;98528.88;;;18.14;42.92
33163;BME280;29282;45.656;11.302;2023-02-04T03:53:28;98517.91;;;18.14;42.89
33163;BME280;29282;45.656;11.302;2023-02-04T03:55:54;98510.81;;;18.13;42.86
33163;BME280;29282;45.656;11.302;2023-02-04T03:58:20;98525.34;;;18.14;42.96
33163;BME280;29282;45.656;11.302;2023-02-04T04:00:46;98506.94;;;18.14;42.60
33163;BME280;29282;45.656;11.302;2023-02-04T04:03:11;98506.94;;;18.14;42.88
33163;BME280;29282;45.656;11.302;2023-02-04T04:05:40;98513.56;;;18.13;42.90
33163;BME280;29282;45.656;11.302;2023-02-04T04:08:05;98498.72;;;18.14;42.86
33163;BME280;29282;45.656;11.302;2023-02-04T04:10:31;98501.81;;;18.13;42.76
33163;BME280;29282;45.656;11.302;2023-02-04T04:12:56;98475.19;;;18.13;42.79
33163;BME280;29282;45.656;11.302;2023-02-04T04:15:22;98489.22;;;18.12;42.84
33163;BME280;29282;45.656;11.302;2023-02-04T04:17:48;98502.59;;;18.13;42.64
33163;BME280;29282;45.656;11.302;2023-02-04T04:20:13;98486.16;;;18.13;42.63
33163;BME280;29282;45.656;11.302;2023-02-04T04:22:39;98507.28;;;18.13;42.76
33163;BME280;29282;45.656;11.302;2023-02-04T04:25:05;98486.50;;;18.12;42.67
33163;BME280;29282;45.656;11.302;2023-02-04T04:27:31;98483.25;;;18.10;42.86
33163;BME280;29282;45.656;11.302;2023-02-04T04:29:57;98482.59;;;18.13;42.62
33163;BME280;29282;45.656;11.302;2023-02-04T04:32:23;98479.88;;;18.13;42.56
33163;BME280;29282;45.656;11.302;2023-02-04T04:34:48;98485.34;;;18.13;42.59
33163;BME280;29282;45.656;11.302;2023-02-04T04:37:14;98483.75;;;18.12;42.72
33163;BME280;29282;45.656;11.302;2023-02-04T04:39:39;98488.09;;;18.13;42.73
33163;BME280;29282;45.656;11.302;2023-02-04T04:42:05;98488.41;;;18.11;42.53
33163;BME280;29282;45.656;11.302;2023-02-04T04:44:30;98497.13;;;18.13;42.57
33163;BME280;29282;45.656;11.302;2023-02-04T04:46:56;98514.72;;;18.12;42.55
33163;BME280;29282;45.656;11.302;2023-02-04T04:49:22;98505.34;;;18.13;42.50
33163;BME280;29282;45.656;11.302;2023-02-04T04:51:48;98513.56;;;18.13;42.57
33163;BME280;29282;45.656;11.302;2023-02-04T04:54:13;98516.00;;;18.15;42.38
33163;BME280;29282;45.656;11.302;2023-02-04T04:56:39;98514.38;;;18.14;42.36
33163;BME280;29282;45.656;11.302;2023-02-04T04:59:04;98522.59;;;18.14;42.51
33163;BME280;29282;45.656;11.302;2023-02-04T05:01:30;98515.16;;;18.14;42.46
33163;BME280;29282;45.656;11.302;2023-02-04T05:03:55;98494.38;;;18.13;42.50
33163;BME280;29282;45.656;11.302;2023-02-04T05:06:21;98508.88;;;18.14;42.59
33163;BME280;29282;45.656;11.302;2023-02-04T05:08:50;98518.75;;;18.15;42.52
33163;BME280;29282;45.656;11.302;2023-02-04T05:11:16;98519.06;;;18.13;42.24
33163;BME280;29282;45.656;11.302;2023-02-04T05:13:42;98519.84;;;18.14;42.44
33163;BME280;29282;45.656;11.302;2023-02-04T05:16:07;98516.81;;;18.15;42.32
33163;BME280;29282;45.656;11.302;2023-02-04T05:18:36;98510.50;;;18.15;42.47
33163;BME280;29282;45.656;11.302;2023-02-04T05:21:02;98523.41;;;18.14;42.33
33163;BME280;29282;45.656;11.302;2023-02-04T05:23:27;98526.47;;;18.13;42.38
33163;BME280;29282;45.656;11.302;2023-02-04T05:25:53;98515.50;;;18.13;42.39
33163;BME280;29282;45.656;11.302;2023-02-04T05:28:18;98508.09;;;18.13;42.46
33163;BME280;29282;45.656;11.302;2023-02-04T05:30:44;98513.56;;;18.13;42.37
33163;BME280;29282;45.656;11.302;2023-02-04T05:33:09;98516.81;;;18.15;42.26
33163;BME280;29282;45.656;11.302;2023-02-04T05:35:34;98506.94;;;18.14;42.36
33163;BME280;29282;45.656;11.302;2023-02-04T05:38:03;98524.22;;;18.15;42.16
33163;BME280;29282;45.656;11.302;2023-02-04T05:40:28;98526.97;;;18.15;42.28
33163;BME280;29282;45.656;11.302;2023-02-04T05:42:54;98526.63;;;18.16;42.22
33163;BME280;29282;45.656;11.302;2023-02-04T05:45:19;98537.59;;;18.16;42.35
33163;BME280;29282;45.656;11.302;2023-02-04T05:47:48;98542.44;;;18.19;42.28
33163;BME280;29282;45.656;11.302;2023-02-04T05:50:13;98545.97;;;18.20;42.22
33163;BME280;29282;45.656;11.302;2023-02-04T05:52:39;98555.34;;;18.19;42.34
33163;BME280;29282;45.656;11.302;2023-02-04T05:55:05;98552.59;;;18.19;42.20
33163;BME280;29282;45.656;11.302;2023-02-04T05:57:31;98558.09;;;18.19;42.30
33163;BME280;29282;45.656;11.302;2023-02-04T05:59:56;98565.16;;;18.20;42.06
33163;BME280;29282;45.656;11.302;2023-02-04T06:02:22;98577.28;;;18.19;42.09
33163;BME280;29282;45.656;11.302;2023-02-04T06:04:47;98574.84;;;18.17;42.29
33163;BME280;29282;45.656;11.302;2023-02-04T06:07:13;98579.53;;;18.17;42.33
33163;BME280;29282;45.656;11.302;2023-02-04T06:09:38;98572.44;;;18.16;42.17
33163;BME280;29282;45.656;11.302;2023-02-04T06:12:04;98580.97;;;18.14;42.19
33163;BME280;29282;45.656;11.302;2023-02-04T06:14:29;98573.91;;;18.13;42.23
33163;BME280;29282;45.656;11.302;2023-02-04T06:16:55;98570.34;;;18.13;42.42
33163;BME280;29282;45.656;11.302;2023-02-04T06:19:23;98590.34;;;18.13;42.17
33163;BME280;29282;45.656;11.302;2023-02-04T06:21:49;98570.34;;;18.13;42.32
33163;BME280;29282;45.656;11.302;2023-02-04T06:24:14;98584.06;;;18.13;42.08
33163;BME280;29282;45.656;11.302;2023-02-04T06:26:39;98585.22;;;18.12;42.24
33163;BME280;29282;45.656;11.302;2023-02-04T06:29:05;98588.75;;;18.12;42.17
33163;BME280;29282;45.656;11.302;2023-02-04T06:31:30;98588.75;;;18.12;42.09
33163;BME280;29282;45.656;11.302;2023-02-04T06:33:56;98602.75;;;18.11;42.19
33163;BME280;29282;45.656;11.302;2023-02-04T06:36:21;98606.00;;;18.13;42.24
33163;BME280;29282;45.656;11.302;2023-02-04T06:38:47;98629.88;;;18.12;42.17
33163;BME280;29282;45.656;11.302;2023-02-04T06:41:12;98616.16;;;18.12;42.23
33163;BME280;29282;45.656;11.302;2023-02-04T06:43:41;98629.88;;;18.12;42.04
33163;BME280;29282;45.656;11.302;2023-02-04T06:46:06;98639.22;;;18.11;42.16
33163;BME280;29282;45.656;11.302;2023-02-04T06:48:32;98652.63;;;18.13;42.22
33163;BME280;29282;45.656;11.302;2023-02-04T06:50:57;98656.50;;;18.12;42.26
33163;BME280;29282;45.656;11.302;2023-02-04T06:53:26;98655.66;;;18.11;42.26
33163;BME280;29282;45.656;11.302;2023-02-04T06:55:52;98641.16;;;18.11;42.16
33163;BME280;29282;45.656;11.302;2023-02-04T06:58:18;98639.72;;;18.13;42.21
33163;BME280;29282;45.656;11.302;2023-02-04T07:00:43;98647.13;;;18.13;42.15
33163;BME280;29282;45.656;11.302;2023-02-04T07:03:09;98648.75;;;18.14;42.16
33163;BME280;29282;45.656;11.302;2023-02-04T07:05:35;98650.69;;;18.13;42.26
33163;BME280;29282;45.656;11.302;2023-02-04T07:08:01;98653.91;;;18.15;42.22
33163;BME280;29282;45.656;11.302;2023-02-04T07:10:27;98648.44;;;18.15;42.15
33163;BME280;29282;45.656;11.302;2023-02-04T07:12:53;98654.22;;;18.14;42.17
33163;BME280;29282;45.656;11.302;2023-02-04T07:15:18;98644.06;;;18.14;41.98
33163;BME280;29282;45.656;11.302;2023-02-04T07:17:44;98649.53;;;18.14;42.09
33163;BME280;29282;45.656;11.302;2023-02-04T07:20:10;98642.16;;;18.15;42.17
33163;BME280;29282;45.656;11.302;2023-02-04T07:22:36;98647.94;;;18.13;42.04
33163;BME280;29282;45.656;11.302;2023-02-04T07:25:02;98635.03;;;18.14;42.14
33163;BME280;29282;45.656;11.302;2023-02-04T07:27:27;98644.06;;;18.14;42.24
33163;BME280;29282;45.656;11.302;2023-02-04T07:29:53;98640.50;;;18.14;41.92
33163;BME280;29282;45.656;11.302;2023-02-04T07:32:18;98633.09;;;18.14;41.93
33163;BME280;29282;45.656;11.302;2023-02-04T07:34:44;98639.72;;;18.13;42.15
33163;BME280;29282;45.656;11.302;2023-02-04T07:37:09;98658.59;;;18.15;41.95
33163;BME280;29282;45.656;11.302;2023-02-04T07:39:35;98669.72;;;18.18;41.81
33163;BME280;29282;45.656;11.302;2023-02-04T07:42:00;98667.94;;;18.22;41.92
33163;BME280;29282;45.656;11.302;2023-02-04T07:44:25;98669.22;;;18.34;41.71
33163;BME280;29282;45.656;11.302;2023-02-04T07:46:54;98664.66;;;18.46;41.50
33163;BME280;29282;45.656;11.302;2023-02-04T07:49:21;98673.19;;;18.62;41.16
33163;BME280;29282;45.656;11.302;2023-02-04T07:51:46;98678.88;;;18.74;40.94
33163;BME280;29282;45.656;11.302;2023-02-04T07:54:11;98683.19;;;18.84;40.72
33163;BME280;29282;45.656;11.302;2023-02-04T07:56:37;98674.47;;;18.91;40.78
33163;BME280;29282;45.656;11.302;2023-02-04T07:59:02;98677.97;;;19.00;40.54
33163;BME280;29282;45.656;11.302;2023-02-04T08:01:28;98676.19;;;19.04;40.42
33163;BME280;29282;45.656;11.302;2023-02-04T08:03:53;98676.00;;;19.09;40.49
33163;BME280;29282;45.656;11.302;2023-02-04T08:06:19;98673.91;;;19.06;40.59
33163;BME280;29282;45.656;11.302;2023-02-04T08:08:44;98674.38;;;19.08;40.44
33163;BME280;29282;45.656;11.302;2023-02-04T08:11:10;98666.16;;;19.08;40.54
33163;BME280;29282;45.656;11.302;2023-02-04T08:13:36;98694.91;;;19.11;40.50
33163;BME280;29282;45.656;11.302;2023-02-04T08:16:02;98680.34;;;19.10;40.52
33163;BME280;29282;45.656;11.302;2023-02-04T08:18:27;98688.13;;;19.08;40.74
33163;BME280;29282;45.656;11.302;2023-02-04T08:20:53;98677.13;;;19.08;40.76
33163;BME280;29282;45.656;11.302;2023-02-04T08:23:19;98669.22;;;19.07;40.66
33163;BME280;29282;45.656;11.302;2023-02-04T08:25:44;98676.66;;;19.06;40.65
33163;BME280;29282;45.656;11.302;2023-02-04T08:28:10;98668.75;;;19.05;40.86
33163;BME280;29282;45.656;11.302;2023-02-04T08:30:35;98672.59;;;19.04;40.77
33163;BME280;29282;45.656;11.302;2023-02-04T08:33:01;98697.00;;;19.05;40.81
33163;BME280;29282;45.656;11.302;2023-02-04T08:35:27;98675.03;;;19.05;40.78
33163;BME280;29282;45.656;11.302;2023-02-04T08:37:52;98688.44;;;19.07;40.85
33163;BME280;29282;45.656;11.302;2023-02-04T08:40:18;98676.47;;;19.11;40.56
33163;BME280;29282;45.656;11.302;2023-02-04T08:42:43;98675.16;;;19.17;40.63
33163;BME280;29282;45.656;11.302;2023-02-04T08:45:09;98669.59;;;19.26;40.43
33163;BME280;29282;45.656;11.302;2023-02-04T08:47:34;98675.25;;;19.30;40.49
33163;BME280;29282;45.656;11.302;2023-02-04T08:49:59;98671.38;;;19.31;40.24
33163;BME280;29282;45.656;11.302;2023-02-04T08:52:25;98675.22;;;19.38;40.32
33163;BME280;29282;45.656;11.302;2023-02-04T08:54:50;98665.38;;;19.37;40.40
33163;BME280;29282;45.656;11.302;2023-02-04T08:57:16;98661.63;;;19.42;40.38
33163;BME280;29282;45.656;11.302;2023-02-04T08:59:41;98661.63;;;19.42;40.37
33163;BME280;29282;45.656;11.302;2023-02-04T09:02:08;98661.63;;;19.42;40.53
33163;BME280;29282;45.656;11.302;2023-02-04T09:04:34;98664.38;;;19.42;40.53
33163;BME280;29282;45.656;11.302;2023-02-04T09:06:59;98663.22;;;19.43;40.64
33163;BME280;29282;45.656;11.302;2023-02-04T09:09:25;98680.50;;;19.43;40.61
33163;BME280;29282;45.656;11.302;2023-02-04T09:11:50;98687.63;;;19.44;40.65
33163;BME280;29282;45.656;11.302;2023-02-04T09:14:16;98684.88;;;19.44;40.64
33163;BME280;29282;45.656;11.302;2023-02-04T09:16:42;98696.31;;;19.46;40.82
33163;BME280;29282;45.656;11.302;2023-02-04T09:19:07;98693.94;;;19.45;40.86
33163;BME280;29282;45.656;11.302;2023-02-04T09:21:35;98695.06;;;19.44;40.95
33163;BME280;29282;45.656;11.302;2023-02-04T09:24:00;98694.59;;;19.42;41.09
33163;BME280;29282;45.656;11.302;2023-02-04T09:26:26;98689.09;;;19.42;41.36
33163;BME280;29282;45.656;11.302;2023-02-04T09:28:51;98709.47;;;19.41;41.22
33163;BME280;29282;45.656;11.302;2023-02-04T09:31:17;98697.81;;;19.44;41.24
33163;BME280;29282;45.656;11.302;2023-02-04T09:33:42;98693.13;;;19.44;41.52
33163;BME280;29282;45.656;11.302;2023-02-04T09:36:11;98692.91;;;19.49;41.85
33163;BME280;29282;45.656;11.302;2023-02-04T09:38:37;98690.16;;;19.49;41.99
33163;BME280;29282;45.656;11.302;2023-02-04T09:41:06;98694.22;;;19.52;42.05
33163;BME280;29282;45.656;11.302;2023-02-04T09:43:35;98698.25;;;19.55;42.25
33163;BME280;29282;45.656;11.302;2023-02-04T09:46:01;98696.91;;;19.61;42.60
33163;BME280;29282;45.656;11.302;2023-02-04T09:48:27;98700.47;;;19.61;42.62
33163;BME280;29282;45.656;11.302;2023-02-04T09:51:03;98696.56;;;19.62;42.87
33163;BME280;29282;45.656;11.302;2023-02-04T09:53:30;98697.88;;;19.65;43.04
33163;BME280;29282;45.656;11.302;2023-02-04T09:55:56;98700.13;;;19.63;43.19
33163;BME280;29282;45.656;11.302;2023-02-04T09:58:22;98705.63;;;19.63;43.34
33163;BME280;29282;45.656;11.302;2023-02-04T10:01:16;98704.38;;;19.60;43.26
33163;BME280;29282;45.656;11.302;2023-02-04T10:03:45;98693.69;;;19.59;43.43
33163;BME280;29282;45.656;11.302;2023-02-04T10:06:16;98690.00;;;19.55;43.48
33163;BME280;29282;45.656;11.302;2023-02-04T10:08:43;98696.16;;;19.52;43.47
33163;BME280;29282;45.656;11.302;2023-02-04T10:11:09;98689.06;;;19.51;43.44
33163;BME280;29282;45.656;11.302;2023-02-04T10:13:37;98697.63;;;19.49;43.50
33163;BME280;29282;45.656;11.302;2023-02-04T10:16:12;98693.72;;;19.50;43.43
33163;BME280;29282;45.656;11.302;2023-02-04T10:18:38;98688.56;;;19.48;43.51
33163;BME280;29282;45.656;11.302;2023-02-04T10:23:38;98671.16;;;19.44;43.58
33163;BME280;29282;45.656;11.302;2023-02-04T10:26:04;98681.00;;;19.45;43.57
33163;BME280;29282;45.656;11.302;2023-02-04T10:28:34;98681.34;;;19.44;43.67
33163;BME280;29282;45.656;11.302;2023-02-04T10:30:59;98681.34;;;19.44;43.52
33163;BME280;29282;45.656;11.302;2023-02-04T10:33:25;98680.03;;;19.41;43.63
33163;BME280;29282;45.656;11.302;2023-02-04T10:35:52;98690.25;;;19.41;43.61
33163;BME280;29282;45.656;11.302;2023-02-04T10:38:19;98686.19;;;19.38;43.50
33163;BME280;29282;45.656;11.302;2023-02-04T10:40:47;98698.66;;;19.36;43.18
33163;BME280;29282;45.656;11.302;2023-02-04T10:45:54;98699.81;;;19.35;43.07
33163;BME280;29282;45.656;11.302;2023-02-04T10:48:23;98693.50;;;19.34;43.05
33163;BME280;29282;45.656;11.302;2023-02-04T10:50:48;98697.50;;;19.37;42.91
33163;BME280;29282;45.656;11.302;2023-02-04T10:53:16;98701.09;;;19.37;42.92
33163;BME280;29282;45.656;11.302;2023-02-04T10:56:01;98683.78;;;19.37;43.19
33163;BME280;29282;45.656;11.302;2023-02-04T10:58:29;98685.84;;;19.40;42.82
33163;BME280;29282;45.656;11.302;2023-02-04T11:00:54;98684.75;;;19.41;42.86
33163;BME280;29282;45.656;11.302;2023-02-04T11:03:22;98676.94;;;19.43;42.77
33163;BME280;29282;45.656;11.302;2023-02-04T11:05:48;98678.59;;;19.44;42.88
33163;BME280;29282;45.656;11.302;2023-02-04T11:10:59;98670.47;;;19.47;42.81
33163;BME280;29282;45.656;11.302;2023-02-04T11:16:27;98673.22;;;19.47;43.00
33163;BME280;29282;45.656;11.302;2023-02-04T11:18:59;98651.69;;;19.49;42.75
33163;BME280;29282;45.656;11.302;2023-02-04T11:36:33;98674.31;;;19.55;42.86
33163;BME280;29282;45.656;11.302;2023-02-04T11:39:06;98667.00;;;19.59;42.79
33163;BME280;29282;45.656;11.302;2023-02-04T11:41:37;98663.31;;;19.55;42.82
33163;BME280;29282;45.656;11.302;2023-02-04T11:44:02;98650.84;;;18.90;42.22
33163;BME280;29282;45.656;11.302;2023-02-04T11:46:28;98656.13;;;19.04;41.88
33163;BME280;29282;45.656;11.302;2023-02-04T11:48:57;98658.81;;;19.21;41.62
33163;BME280;29282;45.656;11.302;2023-02-04T11:51:31;98658.59;;;19.35;41.38
33163;BME280;29282;45.656;11.302;2023-02-04T11:53:57;98660.47;;;19.43;41.40
33163;BME280;29282;45.656;11.302;2023-02-04T11:56:27;98660.28;;;19.48;41.62
33163;BME280;29282;45.656;11.302;2023-02-04T11:58:56;98645.88;;;19.51;41.45
33163;BME280;29282;45.656;11.302;2023-02-04T12:01:31;98650.25;;;19.52;41.41
33163;BME280;29282;45.656;11.302;2023-02-04T12:03:59;98651.53;;;19.55;41.48
33163;BME280;29282;45.656;11.302;2023-02-04T12:06:28;98651.16;;;19.56;41.58
33163;BME280;29282;45.656;11.302;2023-02-04T12:11:30;98649.84;;;19.62;41.45
33163;BME280;29282;45.656;11.302;2023-02-04T12:13:58;98647.09;;;19.62;41.44
33163;BME280;29282;45.656;11.302;2023-02-04T12:16:24;98644.34;;;19.62;41.62
33163;BME280;29282;45.656;11.302;2023-02-04T12:18:49;98647.09;;;19.62;41.50
33163;BME280;29282;45.656;11.302;2023-02-04T12:21:16;98653.09;;;19.64;41.61
33163;BME280;29282;45.656;11.302;2023-02-04T12:23:43;98654.72;;;19.65;41.67
33163;BME280;29282;45.656;11.302;2023-02-04T12:26:08;98650.00;;;19.66;41.72
33163;BME280;29282;45.656;11.302;2023-02-04T12:28:34;98641.75;;;19.66;41.75
33163;BME280;29282;45.656;11.302;2023-02-04T12:30:59;98648.06;;;19.66;41.70
33163;BME280;29282;45.656;11.302;2023-02-04T12:33:25;98638.22;;;19.65;41.68
33163;BME280;29282;45.656;11.302;2023-02-04T12:35:51;98638.22;;;19.65;41.84
33163;BME280;29282;45.656;11.302;2023-02-04T12:38:17;98652.31;;;19.64;41.93
33163;BME280;29282;45.656;11.302;2023-02-04T12:40:42;98644.84;;;19.64;41.82
33163;BME280;29282;45.656;11.302;2023-02-04T12:43:08;98648.41;;;19.65;42.12
33163;BME280;29282;45.656;11.302;2023-02-04T12:45:34;98645.31;;;19.66;41.94
33163;BME280;29282;45.656;11.302;2023-02-04T12:48:00;98639.50;;;19.68;41.92
33163;BME280;29282;45.656;11.302;2023-02-04T12:50:25;98642.38;;;19.71;42.00
33163;BME280;29282;45.656;11.302;2023-02-04T12:52:53;98643.19;;;19.72;41.68
33163;BME280;29282;45.656;11.302;2023-02-04T12:55:19;98632.19;;;19.72;41.91
33163;BME280;29282;45.656;11.302;2023-02-04T12:57:45;98644.47;;;19.75;41.89
33163;BME280;29282;45.656;11.302;2023-02-04T13:00:14;98638.97;;;19.75;42.02
33163;BME280;29282;45.656;11.302;2023-02-04T13:02:40;98639.75;;;19.75;42.02
33163;BME280;29282;45.656;11.302;2023-02-04T13:05:06;98636.22;;;19.75;42.07
33163;BME280;29282;45.656;11.302;2023-02-04T13:07:31;98646.06;;;19.76;41.90
33163;BME280;29282;45.656;11.302;2023-02-04T13:09:58;98647.22;;;19.75;42.14
33163;BME280;29282;45.656;11.302;2023-02-04T13:12:24;98658.22;;;19.75;42.03
33163;BME280;29282;45.656;11.302;2023-02-04T13:14:49;98659.34;;;19.74;41.96
33163;BME280;29282;45.656;11.302;2023-02-04T13:17:15;98659.34;;;19.74;42.21